createdAt,value
2018-05-12T00:01:29.255Z,31.20
2018-05-12T00:03:55.577Z,32.57
2018-05-12T00:06:22.623Z,36.40
2018-05-12T00:08:48.970Z,33.50
2018-05-12T00:11:15.296Z,33.80
2018-05-12T00:13:41.637Z,32.50
2018-05-12T00:16:07.929Z,32.83
2018-05-12T00:18:34.269Z,32.27
2018-05-12T00:21:00.563Z,40.40
2018-05-12T00:23:26.937Z,32.30
2018-05-12T00:25:53.979Z,33.77
2018-05-12T00:28:20.312Z,33.07
2018-05-12T00:30:46.636Z,36.23
2018-05-12T00:33:13.027Z,32.40
2018-05-12T00:35:40.136Z,33.93
2018-05-12T00:38:06.427Z,30.40
2018-05-12T00:40:32.818Z,33.53
2018-05-12T00:42:59.215Z,33.67
2018-05-12T00:45:25.441Z,33.77
2018-05-12T00:47:51.738Z,33.33
2018-05-12T00:50:18.109Z,34.07
2018-05-12T00:52:44.447Z,33.33
2018-05-12T00:55:10.749Z,33.47
2018-05-12T00:57:37.032Z,33.17
2018-05-12T01:00:03.536Z,33.80
2018-05-12T01:02:30.555Z,32.73
2018-05-12T01:04:56.861Z,33.03
2018-05-12T01:07:23.216Z,32.60
2018-05-12T01:09:49.518Z,34.40
2018-05-12T01:12:16.636Z,33.23
2018-05-12T01:14:42.942Z,33.93
2018-05-12T01:17:09.290Z,32.90
2018-05-12T01:19:35.811Z,34.53
2018-05-12T01:22:09.083Z,33.57
2018-05-12T01:24:35.391Z,34.13
2018-05-12T01:27:01.763Z,33.73
2018-05-12T01:29:28.080Z,34.20
2018-05-12T01:31:55.111Z,33.33
2018-05-12T01:34:22.185Z,34.63
2018-05-12T01:36:48.515Z,34.13
2018-05-12T01:39:15.593Z,35.77
2018-05-12T01:41:41.860Z,34.83
2018-05-12T01:44:08.158Z,34.73
2018-05-12T01:46:34.487Z,33.13
2018-05-12T01:49:00.721Z,36.37
2018-05-12T01:51:27.038Z,36.63
2018-05-12T01:53:53.329Z,32.90
2018-05-12T01:56:20.451Z,33.23
2018-05-12T01:58:46.741Z,34.40
2018-05-12T02:01:13.802Z,33.80
2018-05-12T02:03:40.120Z,34.17
2018-05-12T02:06:06.465Z,35.23
2018-05-12T02:08:32.858Z,33.37
2018-05-12T02:10:59.094Z,34.83
2018-05-12T02:13:25.384Z,33.30
2018-05-12T02:15:53.233Z,35.47
2018-05-12T02:18:19.665Z,33.73
2018-05-12T02:20:46.000Z,35.40
2018-05-12T02:23:12.288Z,35.73
2018-05-12T02:25:38.686Z,35.07
2018-05-12T02:28:05.021Z,35.57
2018-05-12T02:30:31.448Z,34.47
2018-05-12T02:32:58.521Z,35.40
2018-05-12T02:35:24.851Z,34.93
2018-05-12T02:37:51.236Z,33.47
2018-05-12T02:40:18.318Z,35.47
2018-05-12T02:42:44.743Z,35.10
2018-05-12T02:45:11.056Z,32.50
2018-05-12T02:47:37.371Z,31.40
2018-05-12T02:50:03.839Z,28.90
2018-05-12T02:52:30.879Z,33.53
2018-05-12T02:54:57.944Z,33.73
2018-05-12T02:57:25.057Z,35.20
2018-05-12T02:59:51.369Z,37.63
2018-05-12T03:02:17.657Z,36.80
2018-05-12T03:04:44.092Z,36.87
2018-05-12T03:07:10.474Z,39.37
2018-05-12T03:09:36.772Z,40.93
2018-05-12T03:12:03.097Z,38.93
2018-05-12T03:14:29.380Z,40.27
2018-05-12T03:16:55.711Z,38.43
2018-05-12T03:19:22.018Z,34.20
2018-05-12T03:21:49.005Z,33.57
2018-05-12T03:24:15.406Z,35.00
2018-05-12T03:26:42.467Z,34.10
2018-05-12T03:29:09.536Z,34.50
2018-05-12T03:31:35.825Z,32.83
2018-05-12T03:34:02.168Z,36.33
2018-05-12T03:36:28.483Z,29.93
2018-05-12T03:38:54.795Z,32.47
2018-05-12T03:41:21.866Z,34.00
2018-05-12T03:43:48.911Z,35.77
2018-05-12T03:46:16.021Z,32.97
2018-05-12T03:48:42.307Z,34.90
2018-05-12T03:51:08.653Z,33.77
2018-05-12T03:53:34.957Z,36.93
2018-05-12T03:56:01.510Z,29.23
2018-05-12T03:58:27.802Z,27.40
2018-05-12T04:00:54.812Z,28.40
2018-05-12T04:03:21.163Z,30.10
2018-05-12T04:05:59.704Z,29.33
2018-05-12T04:08:38.367Z,25.27
2018-05-12T04:11:17.804Z,27.27
2018-05-12T04:13:44.105Z,32.00
2018-05-12T04:16:10.449Z,25.70
2018-05-12T04:18:36.789Z,26.17
2018-05-12T04:21:03.200Z,26.17
2018-05-12T04:23:29.484Z,24.43
2018-05-12T04:25:55.823Z,24.90
2018-05-12T04:28:22.196Z,23.03
2018-05-12T04:30:48.535Z,23.90
2018-05-12T04:33:14.889Z,23.67
2018-05-12T04:35:41.263Z,28.40
2018-05-12T04:38:07.590Z,24.33
2018-05-12T04:40:33.938Z,29.70
2018-05-12T04:43:01.078Z,26.50
2018-05-12T04:45:27.505Z,29.37
2018-05-12T04:47:53.808Z,29.13
2018-05-12T04:50:20.149Z,31.10
2018-05-12T04:52:46.429Z,27.63
2018-05-12T04:55:12.734Z,31.23
2018-05-12T04:57:39.066Z,28.43
2018-05-12T05:00:05.443Z,31.23
2018-05-12T05:02:32.471Z,24.90
2018-05-12T05:04:59.521Z,28.17
2018-05-12T05:07:26.590Z,24.63
2018-05-12T05:09:52.940Z,26.83
2018-05-12T05:12:20.008Z,30.93
2018-05-12T05:14:46.469Z,31.07
2018-05-12T05:17:12.792Z,30.37
2018-05-12T05:19:39.165Z,31.53
2018-05-12T05:22:05.501Z,29.20
2018-05-12T05:24:32.547Z,30.83
2018-05-12T05:26:58.889Z,29.93
2018-05-12T05:29:25.957Z,28.93
2018-05-12T05:31:52.360Z,25.43
2018-05-12T05:34:18.674Z,26.40
2018-05-12T05:36:45.057Z,31.00
2018-05-12T05:39:12.110Z,30.80
2018-05-12T05:41:38.444Z,30.10
2018-05-12T05:44:04.799Z,27.90
2018-05-12T05:46:32.033Z,30.93
2018-05-12T05:48:58.416Z,28.33
2018-05-12T05:51:24.736Z,30.50
2018-05-12T05:53:51.164Z,31.60
2018-05-12T05:56:17.556Z,31.93
2018-05-12T05:58:44.597Z,27.57
2018-05-12T06:01:11.082Z,27.37
2018-05-12T06:03:37.419Z,27.40
2018-05-12T06:06:03.764Z,24.80
2018-05-12T06:08:30.073Z,25.67
2018-05-12T06:10:56.367Z,23.97
2018-05-12T06:13:22.696Z,23.87
2018-05-12T06:15:49.807Z,24.27
2018-05-12T06:18:16.147Z,23.30
2018-05-12T06:20:42.519Z,29.17
2018-05-12T06:23:09.558Z,27.93
2018-05-12T06:25:35.822Z,28.30
2018-05-12T06:28:02.890Z,27.07
2018-05-12T06:30:29.979Z,26.97
2018-05-12T06:32:56.422Z,26.47
2018-05-12T06:35:22.808Z,19.63
2018-05-12T06:37:49.078Z,21.33
2018-05-12T06:40:16.252Z,24.53
2018-05-12T06:42:43.312Z,20.40
2018-05-12T06:45:09.709Z,24.73
2018-05-12T06:47:36.011Z,22.30
2018-05-12T06:50:02.402Z,24.97
2018-05-12T06:52:28.761Z,25.90
2018-05-12T06:54:55.874Z,26.97
2018-05-12T06:57:22.180Z,24.57
2018-05-12T06:59:49.310Z,26.67
2018-05-12T07:02:15.666Z,27.07
2018-05-12T07:04:42.014Z,26.87
2018-05-12T07:07:08.404Z,21.00
2018-05-12T07:09:34.798Z,23.33
2018-05-12T07:12:01.243Z,25.87
2018-05-12T07:14:27.628Z,25.30
2018-05-12T07:16:53.982Z,23.93
2018-05-12T07:19:20.353Z,25.87
2018-05-12T07:21:46.749Z,21.77
2018-05-12T07:24:13.867Z,19.83
2018-05-12T07:26:40.209Z,24.60
2018-05-12T07:29:06.710Z,24.87
2018-05-12T07:31:33.006Z,24.13
2018-05-12T07:33:59.326Z,23.67
2018-05-12T07:36:25.656Z,21.30
2018-05-12T07:38:52.113Z,21.30
2018-05-12T07:41:18.385Z,19.53
2018-05-12T07:43:44.783Z,20.47
2018-05-12T07:46:11.168Z,19.27
2018-05-12T07:48:37.614Z,23.53
2018-05-12T07:51:03.984Z,22.43
2018-05-12T07:53:30.380Z,22.97
2018-05-12T07:55:56.759Z,22.97
2018-05-12T07:58:23.123Z,23.50
2018-05-12T08:00:50.224Z,23.17
2018-05-12T08:03:16.689Z,22.27
2018-05-12T08:05:43.004Z,23.43
2018-05-12T08:08:09.322Z,22.60
2018-05-12T08:10:36.425Z,23.10
2018-05-12T08:13:02.733Z,22.10
2018-05-12T08:15:29.133Z,21.33
2018-05-12T08:17:55.731Z,22.40
2018-05-12T08:20:22.091Z,22.70
2018-05-12T08:22:48.473Z,20.80
2018-05-12T08:25:14.743Z,18.97
2018-05-12T08:27:41.871Z,18.80
2018-05-12T08:30:08.245Z,19.67
2018-05-12T08:32:35.397Z,19.20
2018-05-12T08:35:01.997Z,20.30
2018-05-12T08:37:28.393Z,20.47
2018-05-12T08:39:54.757Z,18.67
2018-05-12T08:42:21.821Z,20.13
2018-05-12T08:44:48.944Z,19.33
2018-05-12T08:47:15.509Z,18.13
2018-05-12T08:49:41.816Z,21.33
2018-05-12T08:52:08.086Z,21.10
2018-05-12T08:54:34.449Z,20.77
2018-05-12T08:57:01.565Z,20.73
2018-05-12T08:59:27.891Z,20.40
2018-05-12T09:01:54.266Z,17.93
2018-05-12T09:04:20.650Z,19.10
2018-05-12T09:06:47.070Z,16.97
2018-05-12T09:09:13.524Z,15.77
2018-05-12T09:11:39.824Z,15.73
2018-05-12T09:14:06.112Z,17.63
2018-05-12T09:16:33.224Z,14.60
2018-05-12T09:18:59.531Z,13.80
2018-05-12T09:21:26.621Z,18.50
2018-05-12T09:23:52.976Z,14.80
2018-05-12T09:26:19.650Z,14.93
2018-05-12T09:28:46.031Z,14.40
2018-05-12T09:31:12.445Z,14.77
2018-05-12T09:33:38.856Z,17.23
2018-05-12T09:36:05.184Z,13.97
2018-05-12T09:38:31.513Z,14.03
2018-05-12T09:40:57.810Z,15.50
2018-05-12T09:43:25.066Z,15.20
2018-05-12T09:45:51.403Z,17.20
2018-05-12T09:48:17.707Z,16.27
2018-05-12T09:50:47.146Z,17.50
2018-05-12T09:53:13.422Z,14.87
2018-05-12T09:55:39.814Z,13.03
2018-05-12T09:58:06.225Z,14.77
2018-05-12T10:00:32.724Z,13.27
2018-05-12T10:02:59.101Z,13.00
2018-05-12T10:05:25.496Z,12.47
2018-05-12T10:07:51.844Z,12.10
2018-05-12T10:10:32.271Z,12.60
2018-05-12T10:12:58.673Z,17.13
2018-05-12T10:15:25.115Z,16.67
2018-05-12T10:17:51.415Z,13.87
2018-05-12T10:20:17.791Z,13.33
2018-05-12T10:22:44.183Z,16.50
2018-05-12T10:25:16.639Z,13.97
2018-05-12T10:27:43.069Z,12.17
2018-05-12T10:30:10.426Z,15.07
2018-05-12T10:32:37.505Z,13.10
2018-05-12T10:35:03.811Z,10.17
2018-05-12T10:37:30.148Z,10.10
2018-05-12T10:39:56.480Z,11.47
2018-05-12T10:42:22.797Z,10.57
2018-05-12T10:44:49.182Z,14.10
2018-05-12T10:47:15.538Z,12.43
2018-05-12T10:49:42.576Z,11.30
2018-05-12T10:52:08.914Z,9.97
2018-05-12T10:54:35.297Z,10.50
2018-05-12T10:57:02.339Z,10.17
2018-05-12T10:59:28.728Z,10.33
2018-05-12T11:01:54.995Z,9.13
2018-05-12T11:04:21.368Z,9.70
2018-05-12T11:06:47.736Z,9.30
2018-05-12T11:09:15.193Z,9.83
2018-05-12T11:11:43.333Z,8.00
2018-05-12T11:14:09.868Z,8.47
2018-05-12T11:16:36.529Z,9.63
2018-05-12T11:19:02.923Z,9.57
2018-05-12T11:21:30.088Z,8.30
2018-05-12T11:23:57.384Z,8.67
2018-05-12T11:26:23.666Z,9.93
2018-05-12T11:28:49.976Z,8.30
2018-05-12T11:31:16.384Z,10.23
2018-05-12T11:33:43.508Z,7.83
2018-05-12T11:36:16.112Z,8.27
2018-05-12T11:38:42.456Z,8.30
2018-05-12T11:41:08.789Z,8.10
2018-05-12T11:43:35.164Z,7.47
2018-05-12T11:46:01.579Z,7.10
2018-05-12T11:48:28.720Z,7.77
2018-05-12T11:50:55.133Z,7.83
2018-05-12T11:53:22.213Z,7.83
2018-05-12T11:55:48.563Z,8.73
2018-05-12T11:58:14.851Z,9.70
2018-05-12T12:00:41.133Z,8.63
2018-05-12T12:03:07.582Z,7.97
2018-05-12T12:05:33.987Z,6.20
2018-05-12T12:08:00.405Z,6.63
2018-05-12T12:10:26.751Z,6.47
2018-05-12T12:12:57.080Z,5.97
2018-05-12T12:15:23.580Z,7.23
2018-05-12T12:17:50.636Z,6.30
2018-05-12T12:20:17.737Z,6.63
2018-05-12T12:22:44.085Z,6.30
2018-05-12T12:25:10.405Z,8.17
2018-05-12T12:27:36.745Z,8.00
2018-05-12T12:30:03.066Z,6.60
2018-05-12T12:32:30.155Z,6.10
2018-05-12T12:34:56.522Z,6.33
2018-05-12T12:37:22.868Z,7.33
2018-05-12T12:39:49.250Z,7.07
2018-05-12T12:42:16.363Z,7.20
2018-05-12T12:44:42.755Z,5.70
2018-05-12T12:47:09.841Z,6.03
2018-05-12T12:49:36.954Z,7.10
2018-05-12T12:52:03.265Z,8.00
2018-05-12T12:54:29.656Z,8.13
2018-05-12T12:56:55.984Z,8.17
2018-05-12T12:59:22.392Z,8.17
2018-05-12T13:01:52.090Z,8.10
2018-05-12T13:04:19.160Z,7.37
2018-05-12T13:06:46.211Z,7.00
2018-05-12T13:09:13.264Z,9.70
2018-05-12T13:11:40.334Z,9.73
2018-05-12T13:14:07.504Z,10.03
2018-05-12T13:16:34.570Z,10.20
2018-05-12T13:19:01.588Z,9.53
2018-05-12T13:21:27.953Z,9.30
2018-05-12T13:23:54.295Z,9.17
2018-05-12T13:26:21.363Z,10.40
2018-05-12T13:28:48.500Z,10.93
2018-05-12T13:31:22.342Z,12.43
2018-05-12T13:33:48.820Z,12.83
2018-05-12T13:36:15.144Z,12.63
2018-05-12T13:38:41.417Z,14.33
2018-05-12T13:41:07.744Z,13.40
2018-05-12T13:43:34.032Z,16.27
2018-05-12T13:46:00.342Z,16.83
2018-05-12T13:48:26.685Z,17.53
2018-05-12T13:50:53.774Z,16.60
2018-05-12T13:53:20.127Z,14.67
2018-05-12T13:55:46.662Z,16.67
2018-05-12T13:58:12.947Z,18.90
2018-05-12T14:00:40.003Z,19.00
2018-05-12T14:03:07.014Z,20.03
2018-05-12T14:05:33.328Z,19.77
2018-05-12T14:07:59.643Z,18.87
2018-05-12T14:10:26.719Z,19.07
2018-05-12T14:12:53.901Z,19.10
2018-05-12T14:28:50.534Z,16.07
2018-05-12T14:31:16.769Z,13.87
2018-05-12T14:33:42.984Z,14.57
2018-05-12T14:36:09.240Z,11.50
2018-05-12T14:38:35.456Z,11.73
2018-05-12T14:41:02.555Z,12.13
2018-05-12T14:43:29.850Z,14.80
2018-05-12T14:45:58.828Z,13.20
2018-05-12T14:48:25.169Z,14.33
2018-05-12T14:50:51.491Z,14.53
2018-05-12T14:53:17.881Z,15.13
2018-05-12T14:55:44.425Z,14.83
2018-05-12T14:58:10.863Z,15.43
2018-05-12T15:00:37.157Z,18.53
2018-05-12T15:03:03.482Z,19.63
2018-05-12T15:05:30.552Z,18.77
2018-05-12T15:07:57.609Z,19.23
2018-05-12T15:10:24.650Z,20.27
2018-05-12T15:12:51.051Z,18.77
2018-05-12T15:15:17.551Z,16.80
2018-05-12T15:17:43.931Z,14.70
2018-05-12T15:20:10.254Z,16.93
2018-05-12T15:22:45.908Z,14.90
2018-05-12T15:25:12.973Z,15.37
2018-05-12T15:27:39.997Z,18.33
2018-05-12T15:30:06.331Z,16.73
2018-05-12T15:32:32.746Z,16.70
2018-05-12T15:34:59.062Z,17.73
2018-05-12T15:37:26.132Z,17.27
2018-05-12T15:39:53.230Z,19.23
2018-05-12T15:42:19.536Z,17.97
2018-05-12T15:44:46.622Z,18.70
2018-05-12T15:47:12.993Z,18.67
2018-05-12T15:49:39.971Z,17.80
2018-05-12T15:52:07.108Z,16.53
2018-05-12T15:54:33.391Z,21.20
2018-05-12T15:57:00.453Z,18.87
2018-05-12T15:59:26.773Z,16.57
2018-05-12T16:01:53.081Z,16.70
2018-05-12T16:04:19.433Z,18.03
2018-05-12T16:06:45.812Z,21.97
2018-05-12T16:09:12.876Z,21.57
2018-05-12T16:11:39.170Z,23.53
2018-05-12T16:14:06.311Z,26.27
2018-05-12T16:16:32.632Z,25.83
2018-05-12T16:18:58.961Z,22.73
2018-05-12T16:21:25.290Z,25.43
2018-05-12T16:23:51.599Z,21.70
2018-05-12T16:26:18.021Z,18.03
2018-05-12T16:28:45.468Z,20.27
2018-05-12T16:31:12.579Z,26.73
2018-05-12T16:33:39.058Z,25.37
2018-05-12T16:36:05.653Z,25.70
2018-05-12T16:38:32.752Z,25.67
2018-05-12T16:40:59.246Z,24.70
2018-05-12T16:43:26.420Z,26.23
2018-05-12T16:45:52.807Z,27.80
2018-05-12T16:48:19.185Z,27.13
2018-05-12T16:50:46.152Z,28.23
2018-05-12T16:53:13.487Z,22.23
2018-05-12T16:55:39.846Z,19.10
2018-05-12T16:58:06.213Z,20.00
2018-05-12T17:00:33.317Z,23.27
2018-05-12T17:02:59.657Z,25.17
2018-05-12T17:05:26.006Z,26.90
2018-05-12T17:07:52.441Z,23.93
2018-05-12T17:10:18.701Z,27.37
2018-05-12T17:12:45.635Z,19.60
2018-05-12T17:15:12.946Z,19.90
2018-05-12T17:17:39.485Z,22.00
2018-05-12T17:20:05.841Z,21.13
2018-05-12T17:22:32.229Z,21.23
2018-05-12T17:24:58.549Z,16.73
2018-05-12T17:27:24.940Z,17.00
2018-05-12T17:29:51.704Z,16.33
2018-05-12T17:32:18.088Z,15.13
2018-05-12T17:34:45.438Z,15.73
2018-05-12T17:37:11.841Z,14.77
2018-05-12T17:39:40.133Z,15.47
2018-05-12T17:42:06.589Z,15.67
2018-05-12T17:44:34.637Z,16.40
2018-05-12T17:47:01.171Z,16.80
2018-05-12T17:49:28.357Z,17.73
2018-05-12T17:51:54.780Z,17.73
2018-05-12T17:54:21.868Z,17.10
2018-05-12T17:56:48.202Z,15.90
2018-05-12T17:59:14.614Z,18.03
2018-05-12T18:01:40.981Z,18.20
2018-05-12T18:04:08.110Z,18.10
2018-05-12T18:06:34.722Z,16.33
2018-05-12T18:09:01.893Z,18.20
2018-05-12T18:11:28.356Z,19.67
2018-05-12T18:13:54.726Z,24.90
2018-05-12T18:16:22.223Z,14.93
2018-05-12T18:18:48.606Z,15.03
2018-05-12T18:21:16.312Z,16.13
2018-05-12T18:23:43.358Z,16.40
2018-05-12T18:26:09.767Z,14.10
2018-05-12T18:28:36.279Z,12.23
2018-05-12T18:31:06.861Z,9.90
2018-05-12T18:33:33.220Z,10.20
2018-05-12T18:35:59.716Z,9.33
2018-05-12T18:38:26.078Z,8.33
2018-05-12T18:40:52.385Z,8.93
2018-05-12T18:43:18.777Z,36.33
2018-05-12T18:45:45.177Z,12.23
2018-05-12T18:48:11.626Z,8.27
2018-05-12T18:50:38.050Z,7.67
2018-05-12T18:53:10.599Z,12.13
2018-05-12T18:55:37.053Z,8.80
2018-05-12T18:58:03.591Z,8.13
2018-05-12T19:00:30.028Z,8.23
2018-05-12T19:02:56.390Z,7.80
2018-05-12T19:05:22.706Z,9.10
2018-05-12T19:07:49.190Z,9.33
2018-05-12T19:10:15.963Z,34.07
2018-05-12T19:12:42.317Z,20.37
2018-05-12T19:15:08.816Z,11.80
2018-05-12T19:17:35.139Z,9.80
2018-05-12T19:20:02.547Z,9.73
2018-05-12T19:22:30.009Z,10.57
2018-05-12T19:24:57.231Z,10.80
2018-05-12T19:27:23.574Z,11.73
2018-05-12T19:29:50.628Z,14.40
2018-05-12T19:32:17.110Z,33.67
2018-05-12T19:34:43.566Z,25.60
2018-05-12T19:37:09.949Z,13.13
2018-05-12T19:39:36.350Z,13.63
2018-05-12T19:42:03.143Z,13.03
2018-05-12T19:44:29.563Z,12.70
2018-05-12T19:46:55.934Z,13.93
2018-05-12T19:49:22.384Z,14.17
2018-05-12T19:51:48.934Z,15.53
2018-05-12T19:54:15.340Z,14.07
2018-05-12T19:56:41.697Z,13.33
2018-05-12T19:59:08.078Z,13.07
2018-05-12T20:01:34.427Z,12.90
2018-05-12T20:04:01.486Z,22.30
2018-05-12T20:06:27.854Z,21.23
2018-05-12T20:08:54.957Z,18.67
2018-05-12T20:11:21.393Z,27.90
2018-05-12T20:13:47.778Z,12.90
2018-05-12T20:16:14.178Z,14.23
2018-05-12T20:18:40.500Z,12.13
2018-05-12T20:21:06.858Z,11.80
2018-05-12T20:23:33.251Z,12.07
2018-05-12T20:25:59.574Z,24.93
2018-05-12T20:28:25.929Z,14.03
2018-05-12T20:30:56.041Z,14.90
2018-05-12T20:33:22.397Z,15.03
2018-05-12T20:35:48.722Z,14.30
2018-05-12T20:38:15.131Z,15.53
2018-05-12T20:40:41.425Z,14.40
2018-05-12T20:43:07.856Z,15.77
2018-05-12T20:45:34.177Z,17.53
2018-05-12T20:48:00.567Z,16.17
2018-05-12T20:50:30.902Z,18.70
2018-05-12T20:52:57.201Z,16.20
2018-05-12T20:55:23.639Z,14.23
2018-05-12T20:57:49.959Z,16.97
2018-05-12T21:00:16.301Z,14.50
2018-05-12T21:02:43.475Z,14.50
2018-05-12T21:05:10.550Z,19.00
2018-05-12T21:07:36.922Z,14.17
2018-05-12T21:10:03.314Z,14.77
2018-05-12T21:12:29.626Z,18.20
2018-05-12T21:14:56.075Z,14.87
2018-05-12T21:17:22.444Z,24.30
2018-05-12T21:19:48.783Z,24.80
2018-05-12T21:22:15.111Z,21.23
2018-05-12T21:24:41.450Z,23.40
2018-05-12T21:27:07.805Z,18.83
2018-05-12T21:29:34.262Z,18.37
2018-05-12T21:32:01.096Z,20.90
2018-05-12T21:34:27.424Z,23.50
2018-05-12T21:36:53.783Z,18.70
2018-05-12T21:39:20.182Z,20.63
2018-05-12T21:41:46.554Z,20.50
2018-05-12T21:44:12.887Z,24.00
2018-05-12T21:46:39.454Z,19.97
2018-05-12T21:49:05.775Z,22.67
2018-05-12T21:51:32.160Z,19.00
2018-05-12T21:53:58.546Z,21.00
2018-05-12T21:56:24.829Z,22.27
2018-05-12T21:58:51.171Z,19.77
2018-05-12T22:01:17.525Z,23.13
2018-05-12T22:03:43.841Z,21.07
2018-05-12T22:06:10.157Z,19.03
2018-05-12T22:08:36.549Z,18.97
2018-05-12T22:11:03.093Z,20.30
2018-05-12T22:13:29.493Z,23.43
2018-05-12T22:15:55.973Z,19.97
2018-05-12T22:18:22.313Z,24.90
2018-05-12T22:20:48.617Z,17.90
2018-05-12T22:23:15.109Z,20.47
2018-05-12T22:25:41.461Z,15.07
2018-05-12T22:28:07.811Z,20.10
2018-05-12T22:30:34.157Z,17.60
2018-05-12T22:33:00.531Z,17.37
2018-05-12T22:35:30.188Z,16.07
2018-05-12T22:37:56.506Z,20.73
2018-05-12T22:40:23.665Z,18.23
2018-05-12T22:42:50.072Z,20.80
2018-05-12T22:45:16.427Z,17.03
2018-05-12T22:47:42.777Z,20.60
2018-05-12T22:50:09.213Z,18.63
2018-05-12T22:52:35.552Z,16.37
2018-05-12T22:55:01.895Z,16.37
2018-05-12T22:57:28.316Z,15.70
2018-05-12T22:59:54.750Z,16.63
2018-05-12T23:02:21.094Z,16.57
2018-05-12T23:04:47.444Z,16.57
2018-05-12T23:07:13.795Z,16.40
2018-05-12T23:09:40.093Z,16.70
2018-05-12T23:12:07.147Z,16.97
2018-05-12T23:14:33.429Z,17.00
2018-05-12T23:16:59.842Z,17.17
2018-05-12T23:19:26.099Z,18.07
2018-05-12T23:21:52.393Z,15.97
2018-05-12T23:24:18.853Z,18.27
2018-05-12T23:26:45.959Z,20.30
2018-05-12T23:29:12.297Z,17.93
2018-05-12T23:31:38.591Z,19.40
2018-05-12T23:34:04.910Z,19.67
2018-05-12T23:36:31.212Z,29.00
2018-05-12T23:38:57.648Z,20.37
2018-05-12T23:41:23.963Z,35.90
2018-05-12T23:43:51.250Z,25.27
2018-05-12T23:46:18.428Z,29.23
2018-05-12T23:48:44.799Z,29.37
2018-05-12T23:51:11.144Z,22.33
2018-05-12T23:53:37.556Z,22.60
2018-05-12T23:56:03.904Z,18.93
2018-05-12T23:58:30.209Z,20.37
